Time;durP1;ratioP1;P1;durP2;ratioP2;P2;SDS_P1;SDS_P2;PMS_P1;PMS_P2;Temp;Humidity;BMP_temperature;BMP_pressure;BME280_temperature;BME280_humidity;BME280_pressure;Samples;Min_cycle;Max_cycle;Signal;HPM_P1;HPM_P2
2023/11/24 00:04:16;;;;;;;;;;;;;;;17.46;49.48;99243.38;10329274;28;1017;-70
2023/11/24 00:09:13;;;;;;;;;;;;;;;17.46;49.64;99257.41;10328541;28;942;-70
2023/11/24 00:14:09;;;;;;;;;;;;;;;17.46;49.76;99264.47;10328767;28;910;-70
2023/11/24 00:19:05;;;;;;;;;;;;;;;17.47;49.50;99255.63;10328862;28;1905;-70
2023/11/24 00:24:04;;;;;;;;;;;;;;;17.45;49.63;99254.88;10328063;28;786;-70
2023/11/24 00:29:00;;;;;;;;;;;;;;;17.45;49.56;99278.56;10328803;28;806;-70
2023/11/24 00:33:55;;;;;;;;;;;;;;;17.44;49.71;99290.03;10328696;28;1136;-70
2023/11/24 00:38:51;;;;;;;;;;;;;;;17.44;49.62;99290.03;10328434;28;1914;-70
2023/11/24 00:43:47;;;;;;;;;;;;;;;17.42;49.49;99292.75;10327564;28;910;-70
2023/11/24 00:48:43;;;;;;;;;;;;;;;17.45;49.35;99292.59;10328021;28;843;-70
2023/11/24 00:53:39;;;;;;;;;;;;;;;17.43;49.50;99304.97;10327268;28;794;-70
2023/11/24 00:58:35;;;;;;;;;;;;;;;17.43;49.28;99307.63;10327091;28;1954;-70
2023/11/24 01:03:31;;;;;;;;;;;;;;;17.43;49.35;99306.78;10326870;28;923;-70
2023/11/24 01:08:27;;;;;;;;;;;;;;;17.43;49.36;99290.97;10326693;28;951;-70
2023/11/24 01:13:23;;;;;;;;;;;;;;;17.44;49.58;99285.59;10326319;28;852;-70
2023/11/24 01:18:19;;;;;;;;;;;;;;;17.44;49.46;99267.16;10327099;28;1972;-70
2023/11/24 01:23:15;;;;;;;;;;;;;;;17.44;49.35;99279.47;10326146;28;870;-70
2023/11/24 01:28:13;;;;;;;;;;;;;;;17.43;49.50;99283.91;10326264;28;852;-70
2023/11/24 01:33:09;;;;;;;;;;;;;;;17.43;49.31;99283.06;10324769;28;1211;-70
2023/11/24 01:38:05;;;;;;;;;;;;;;;17.42;49.52;99274.31;10325737;28;1976;-70
2023/11/24 01:43:01;;;;;;;;;;;;;;;17.42;49.34;99266.41;10325542;28;782;-70
2023/11/24 01:47:57;;;;;;;;;;;;;;;17.41;49.39;99258.56;10325675;28;778;-70
2023/11/24 01:52:53;;;;;;;;;;;;;;;17.38;49.65;99251.66;10326277;28;881;-70
2023/11/24 01:57:49;;;;;;;;;;;;;;;17.38;49.50;99246.41;10325400;28;1906;-70
2023/11/24 02:02:45;;;;;;;;;;;;;;;17.40;49.45;99264.78;10325327;28;862;-70
2023/11/24 02:07:41;;;;;;;;;;;;;;;17.40;49.38;99268.25;10325773;28;879;-70
2023/11/24 02:12:37;;;;;;;;;;;;;;;17.38;49.55;99269.25;10325687;28;846;-70
2023/11/24 02:17:33;;;;;;;;;;;;;;;17.37;49.54;99267.53;10324979;28;1961;-70
2023/11/24 02:22:29;;;;;;;;;;;;;;;17.34;49.60;99255.38;10324935;28;898;-70
2023/11/24 02:27:25;;;;;;;;;;;;;;;17.36;49.49;99252.66;10325428;28;810;-70
2023/11/24 02:32:21;;;;;;;;;;;;;;;17.36;49.59;99248.25;10325308;28;918;-70
2023/11/24 02:37:16;;;;;;;;;;;;;;;17.33;49.68;99240.50;10325536;28;1983;-70
2023/11/24 02:42:12;;;;;;;;;;;;;;;17.33;49.48;99237.03;10324442;28;879;-70
2023/11/24 02:47:08;;;;;;;;;;;;;;;17.36;49.41;99234.22;10330232;28;874;-70
2023/11/24 02:52:04;;;;;;;;;;;;;;;17.35;49.60;99227.25;10333434;28;845;-70
2023/11/24 02:57:00;;;;;;;;;;;;;;;17.35;49.40;99225.47;10332163;28;1897;-70
2023/11/24 03:01:56;;;;;;;;;;;;;;;17.34;49.63;99225.53;10332253;28;897;-70
2023/11/24 03:06:52;;;;;;;;;;;;;;;17.34;49.32;99228.16;10332660;28;831;-70
2023/11/24 03:11:48;;;;;;;;;;;;;;;17.34;49.55;99212.38;10331401;28;843;-70
2023/11/24 03:16:45;;;;;;;;;;;;;;;17.34;49.47;99205.31;10330962;28;1913;-70
2023/11/24 03:21:41;;;;;;;;;;;;;;;17.34;49.49;99204.47;10330895;28;1013;-70
2023/11/24 03:26:37;;;;;;;;;;;;;;;17.31;49.52;99208.09;10331370;28;779;-70
2023/11/24 03:31:33;;;;;;;;;;;;;;;17.31;49.33;99194.94;10330581;28;970;-70
2023/11/24 03:36:29;;;;;;;;;;;;;;;17.32;49.56;99194.03;10331069;28;1909;-70
2023/11/24 03:41:25;;;;;;;;;;;;;;;17.31;49.54;99190.50;10330977;28;861;-70
2023/11/24 03:46:21;;;;;;;;;;;;;;;17.29;49.47;99181.84;10329447;28;988;-70
2023/11/24 03:51:16;;;;;;;;;;;;;;;17.28;49.50;99174.03;10329888;28;829;-71
2023/11/24 03:56:12;;;;;;;;;;;;;;;17.30;49.52;99178.28;10328188;28;1957;-70
2023/11/24 04:01:08;;;;;;;;;;;;;;;17.30;49.56;99162.47;10330087;28;834;-70
2023/11/24 04:06:04;;;;;;;;;;;;;;;17.30;49.64;99164.28;10329298;28;929;-70
2023/11/24 04:11:00;;;;;;;;;;;;;;;17.27;49.59;99164.44;10329701;28;858;-70
2023/11/24 04:15:56;;;;;;;;;;;;;;;17.27;49.53;99173.19;10328784;28;1965;-70
2023/11/24 04:20:52;;;;;;;;;;;;;;;17.28;49.58;99163.47;10328898;28;857;-70
2023/11/24 04:25:48;;;;;;;;;;;;;;;17.28;49.64;99169.59;10327898;28;901;-71
2023/11/24 04:30:44;;;;;;;;;;;;;;;17.27;49.35;99183.72;10328769;28;937;-71
2023/11/24 04:35:40;;;;;;;;;;;;;;;17.24;49.63;99160.16;10328147;28;1914;-70
2023/11/24 04:40:35;;;;;;;;;;;;;;;17.27;49.37;99172.34;10328402;28;794;-70
2023/11/24 04:45:31;;;;;;;;;;;;;;;17.27;49.23;99160.00;10327765;28;906;-71
2023/11/24 04:50:27;;;;;;;;;;;;;;;17.37;48.96;99154.25;10327461;28;767;-70
2023/11/24 04:55:23;;;;;;;;;;;;;;;17.40;48.87;99148.84;10326606;28;1902;-70
2023/11/24 05:00:19;;;;;;;;;;;;;;;17.40;48.94;99141.81;10327068;28;866;-70
2023/11/24 05:05:17;;;;;;;;;;;;;;;17.43;48.90;99135.53;10326242;28;1309;-70
2023/11/24 05:10:13;;;;;;;;;;;;;;;17.44;48.68;99137.22;10326640;28;985;-70
2023/11/24 05:15:09;;;;;;;;;;;;;;;17.46;48.71;99123.03;10326779;28;1910;-70
2023/11/24 05:20:05;;;;;;;;;;;;;;;17.50;48.70;99140.41;10325805;28;928;-71
2023/11/24 05:25:03;;;;;;;;;;;;;;;17.49;48.71;99136.03;10326271;28;809;-70
2023/11/24 05:29:59;;;;;;;;;;;;;;;17.54;48.57;99122.63;10326739;28;896;-71
2023/11/24 05:34:55;;;;;;;;;;;;;;;17.60;48.40;99126.72;10325017;28;1917;-71
2023/11/24 05:39:51;;;;;;;;;;;;;;;17.59;48.38;99122.41;10326484;28;782;-72
2023/11/24 05:44:48;;;;;;;;;;;;;;;17.61;48.48;99124.03;10325345;28;1094;-71
2023/11/24 05:49:44;;;;;;;;;;;;;;;17.65;48.55;99107.09;10325964;28;866;-72
2023/11/24 05:54:40;;;;;;;;;;;;;;;17.68;48.44;99100.81;10325117;28;1902;-71
2023/11/24 05:59:36;;;;;;;;;;;;;;;17.69;48.55;99100.75;10325768;28;822;-70
2023/11/24 06:04:32;;;;;;;;;;;;;;;17.70;48.61;99089.25;10324479;28;874;-71
2023/11/24 06:09:29;;;;;;;;;;;;;;;17.73;48.49;99090.88;10325490;28;956;-70
2023/11/24 06:14:25;;;;;;;;;;;;;;;17.73;48.59;99085.63;10325566;28;811;-71
2023/11/24 06:19:21;;;;;;;;;;;;;;;17.75;48.43;99083.75;10325545;28;1980;-70
2023/11/24 06:24:16;;;;;;;;;;;;;;;17.73;48.66;99064.53;10332970;28;876;-71
2023/11/24 06:29:12;;;;;;;;;;;;;;;17.73;48.69;99054.81;10333535;28;874;-71
2023/11/24 06:34:09;;;;;;;;;;;;;;;17.76;48.72;99053.81;10332873;28;1288;-72
2023/11/24 06:39:11;;;;;;;;;;;;;;;17.78;48.66;99066.91;10332260;28;1910;-70
2023/11/24 06:44:07;;;;;;;;;;;;;;;17.74;48.78;99064.44;10332082;28;931;-71
2023/11/24 06:49:05;;;;;;;;;;;;;;;17.75;48.60;99050.31;10332277;28;898;-71
2023/11/24 06:54:00;;;;;;;;;;;;;;;17.78;48.78;99051.09;10332509;28;942;-71
2023/11/24 06:58:56;;;;;;;;;;;;;;;17.77;48.87;99057.31;10331423;28;1894;-71
2023/11/24 07:03:52;;;;;;;;;;;;;;;17.72;49.23;99044.38;10331388;28;843;-71
2023/11/24 07:08:52;;;;;;;;;;;;;;;17.66;49.29;99045.56;10331833;28;1016;-71
2023/11/24 07:13:48;;;;;;;;;;;;;;;17.66;49.36;99040.31;10327758;28;1136;-71
2023/11/24 07:18:44;;;;;;;;;;;;;;;17.60;49.45;99042.41;10328607;28;1951;-70
2023/11/24 07:23:40;;;;;;;;;;;;;;;17.58;49.39;99033.72;10330684;28;874;-70
2023/11/24 07:28:36;;;;;;;;;;;;;;;17.54;49.45;99025.13;10330449;28;873;-71
2023/11/24 07:33:32;;;;;;;;;;;;;;;17.54;49.36;99022.50;10328670;28;1258;-70
2023/11/24 07:38:29;;;;;;;;;;;;;;;17.52;49.39;99019.94;10320752;28;1918;-71
2023/11/24 07:43:25;;;;;;;;;;;;;;;17.54;49.26;99011.97;10305001;28;1865;-71
2023/11/24 07:48:21;;;;;;;;;;;;;;;17.60;49.25;99003.72;10320742;28;931;-71
2023/11/24 07:53:17;;;;;;;;;;;;;;;17.60;49.23;99016.91;10288707;28;889;-71
2023/11/24 07:58:13;;;;;;;;;;;;;;;17.63;49.18;99015.88;10289014;28;1959;-71
2023/11/24 08:03:10;;;;;;;;;;;;;;;17.65;49.12;99014.00;10288445;28;757;-71
2023/11/24 08:08:06;;;;;;;;;;;;;;;17.67;49.14;98994.56;10288249;28;825;-71
2023/11/24 08:13:02;;;;;;;;;;;;;;;17.70;49.16;98997.00;10287902;28;973;-71
2023/11/24 08:17:58;;;;;;;;;;;;;;;17.67;49.08;98991.06;10288121;28;1902;-73
2023/11/24 08:22:54;;;;;;;;;;;;;;;17.69;49.14;98997.13;10287496;28;763;-71
2023/11/24 08:27:50;;;;;;;;;;;;;;;17.69;49.12;98994.47;10287956;28;767;-71
2023/11/24 08:32:48;;;;;;;;;;;;;;;17.70;48.75;98980.34;10286331;28;1241;-70
2023/11/24 08:37:44;;;;;;;;;;;;;;;17.73;48.74;98983.66;10286935;28;1906;-71
2023/11/24 08:42:39;;;;;;;;;;;;;;;17.75;48.63;98981.78;10285341;28;1093;-71
2023/11/24 08:47:35;;;;;;;;;;;;;;;17.75;48.64;98981.78;10286571;28;1003;-71
2023/11/24 08:52:31;;;;;;;;;;;;;;;17.78;48.53;98964.13;10286818;28;960;-71
2023/11/24 08:57:27;;;;;;;;;;;;;;;17.78;48.66;98962.31;10286862;28;1889;-71
2023/11/24 09:02:23;;;;;;;;;;;;;;;17.78;48.82;98950.94;10286496;28;977;-72
2023/11/24 09:07:19;;;;;;;;;;;;;;;17.82;48.62;98949.88;10286084;28;815;-72
2023/11/24 09:12:15;;;;;;;;;;;;;;;17.83;48.75;98941.03;10285789;28;807;-71
2023/11/24 09:17:12;;;;;;;;;;;;;;;17.81;48.76;98924.44;10285403;28;1894;-72
2023/11/24 09:22:10;;;;;;;;;;;;;;;17.82;48.76;98919.09;10285295;28;787;-71
2023/11/24 09:27:06;;;;;;;;;;;;;;;17.80;48.55;98931.50;10285396;28;825;-71
2023/11/24 09:32:02;;;;;;;;;;;;;;;17.81;48.68;98925.28;10285094;28;1092;-71
2023/11/24 09:36:58;;;;;;;;;;;;;;;17.81;48.91;98921.78;10285799;28;1910;-73
2023/11/24 09:41:54;;;;;;;;;;;;;;;17.84;48.62;98916.34;10284229;28;834;-72
2023/11/24 09:46:51;;;;;;;;;;;;;;;17.74;49.04;98903.66;10284739;28;780;-71
2023/11/24 09:51:47;;;;;;;;;;;;;;;17.77;48.84;98909.72;10285126;28;890;-69
2023/11/24 09:56:43;;;;;;;;;;;;;;;17.78;48.62;98906.13;10283756;28;1878;-71
2023/11/24 10:01:39;;;;;;;;;;;;;;;17.79;48.59;98889.38;10284283;28;925;-71
2023/11/24 10:06:38;;;;;;;;;;;;;;;17.81;48.78;98898.06;10314184;28;1188;-71
2023/11/24 10:11:38;;;;;;;;;;;;;;;17.83;48.42;98896.22;10324470;28;818;-70
2023/11/24 10:16:39;;;;;;;;;;;;;;;17.81;48.57;98898.06;10324950;28;1893;-71
2023/11/24 10:21:35;;;;;;;;;;;;;;;17.83;48.39;98875.13;10324486;28;786;-71
2023/11/24 10:26:31;;;;;;;;;;;;;;;17.81;48.14;98885.75;10325044;28;838;-71
2023/11/24 10:31:27;;;;;;;;;;;;;;;17.80;48.10;98893.75;10324850;28;878;-72
2023/11/24 10:36:24;;;;;;;;;;;;;;;17.84;48.03;98898.78;10323416;28;1906;-72
2023/11/24 10:41:22;;;;;;;;;;;;;;;17.84;47.43;98901.41;10324107;28;892;-70
2023/11/24 10:46:20;;;;;;;;;;;;;;;17.83;47.46;98901.47;10324466;28;798;-72
2023/11/24 10:51:16;;;;;;;;;;;;;;;17.83;47.78;98898.84;10324782;28;868;-71
2023/11/24 10:56:12;;;;;;;;;;;;;;;17.81;47.29;98893.66;10324041;28;1955;-71
2023/11/24 11:01:08;;;;;;;;;;;;;;;17.85;47.30;98894.34;10324608;28;995;-71
2023/11/24 11:06:04;;;;;;;;;;;;;;;17.83;47.84;98896.22;10325699;28;862;-71
2023/11/24 11:11:00;;;;;;;;;;;;;;;17.87;47.36;98897.75;10331362;28;979;-70
2023/11/24 11:15:55;;;;;;;;;;;;;;;17.82;47.33;98889.25;10330870;28;1956;-71
2023/11/24 11:20:52;;;;;;;;;;;;;;;17.82;47.90;98879.56;10330870;28;1167;-71
2023/11/24 11:25:51;;;;;;;;;;;;;;;17.84;47.93;98876.81;10330122;28;1146;-71
2023/11/24 11:30:46;;;;;;;;;;;;;;;17.86;47.68;98864.41;10328576;28;1164;-71
2023/11/24 11:35:42;;;;;;;;;;;;;;;17.87;47.84;98856.41;10329630;28;1906;-71
2023/11/24 11:40:40;;;;;;;;;;;;;;;17.90;47.18;98843.03;10330038;28;862;-71
2023/11/24 11:45:36;;;;;;;;;;;;;;;17.92;47.60;98849.09;10329801;28;845;-71
2023/11/24 11:50:32;;;;;;;;;;;;;;;17.99;47.68;98843.44;10329336;28;865;-70
2023/11/24 11:55:31;;;;;;;;;;;;;;;17.95;47.91;98848.91;10329289;28;1889;-73
2023/11/24 12:00:27;;;;;;;;;;;;;;;17.99;47.74;98840.81;10328877;28;957;-71
2023/11/24 12:05:23;;;;;;;;;;;;;;;18.01;47.73;98839.78;10328956;28;845;-71
2023/11/24 12:10:20;;;;;;;;;;;;;;;18.04;47.92;98847.50;10329723;28;870;-71
2023/11/24 12:15:19;;;;;;;;;;;;;;;18.06;47.89;98829.81;10328995;28;1898;-72
2023/11/24 12:20:17;;;;;;;;;;;;;;;18.11;47.41;98830.38;10327552;28;849;-71
2023/11/24 12:25:12;;;;;;;;;;;;;;;18.14;48.26;98808.25;10328188;28;806;-71
2023/11/24 12:30:10;;;;;;;;;;;;;;;18.17;48.16;98808.91;10327943;28;822;-71
2023/11/24 12:35:08;;;;;;;;;;;;;;;18.17;47.70;98808.91;10327072;28;1914;-71
2023/11/24 12:40:03;;;;;;;;;;;;;;;18.28;47.95;98802.16;10327311;28;907;-71
2023/11/24 12:44:59;;;;;;;;;;;;;;;18.33;47.72;98794.81;10327326;28;822;-71
2023/11/24 12:49:55;;;;;;;;;;;;;;;18.35;47.77;98782.38;10327039;28;895;-71
2023/11/24 12:54:51;;;;;;;;;;;;;;;18.25;47.91;98768.88;10327042;28;912;-71
2023/11/24 12:59:48;;;;;;;;;;;;;;;18.24;48.11;98764.56;10327417;28;806;-71
2023/11/24 13:04:44;;;;;;;;;;;;;;;18.17;48.13;98757.97;10325944;28;870;-71
2023/11/24 13:09:40;;;;;;;;;;;;;;;18.13;48.22;98745.88;10326222;28;1118;-71
2023/11/24 13:14:36;;;;;;;;;;;;;;;18.14;48.19;98735.25;10326786;28;810;-71
2023/11/24 13:19:32;;;;;;;;;;;;;;;18.15;48.41;98738.75;10325743;28;1882;-71
2023/11/24 13:24:28;;;;;;;;;;;;;;;18.12;48.37;98731.00;10326373;28;854;-73
2023/11/24 13:29:24;;;;;;;;;;;;;;;18.26;47.96;98724.91;10324490;28;986;-71
2023/11/24 13:34:20;;;;;;;;;;;;;;;18.17;48.27;98721.88;10326122;28;1308;-71
2023/11/24 13:39:22;;;;;;;;;;;;;;;18.12;48.17;98715.19;10325855;28;1902;-72
2023/11/24 13:44:20;;;;;;;;;;;;;;;18.10;48.30;98686.31;10326076;28;818;-71
2023/11/24 13:49:17;;;;;;;;;;;;;;;18.07;48.32;98702.28;10325028;28;814;-72
2023/11/24 13:54:13;;;;;;;;;;;;;;;18.03;48.49;98687.59;10324478;28;909;-72
2023/11/24 13:59:10;;;;;;;;;;;;;;;18.07;48.54;98709.34;10325231;28;1902;-72
2023/11/24 14:04:10;;;;;;;;;;;;;;;18.07;47.69;98714.63;10325352;28;877;-71
2023/11/24 14:09:11;;;;;;;;;;;;;;;18.07;47.74;98722.53;10324482;28;990;-71
2023/11/24 14:14:07;;;;;;;;;;;;;;;18.06;47.35;98745.44;10324773;28;891;-71
2023/11/24 14:19:05;;;;;;;;;;;;;;;18.02;47.36;98740.41;10324226;28;1941;-71
2023/11/24 14:24:03;;;;;;;;;;;;;;;18.06;47.22;98745.44;10324598;28;783;-71
2023/11/24 14:28:59;;;;;;;;;;;;;;;18.06;47.82;98749.84;10324163;28;866;-71
2023/11/24 14:33:55;;;;;;;;;;;;;;;18.02;47.87;98743.91;10323913;28;1304;-71
2023/11/24 14:38:52;;;;;;;;;;;;;;;18.03;48.14;98742.97;10324507;28;1913;-71
2023/11/24 14:43:48;;;;;;;;;;;;;;;18.05;48.14;98743.75;10330576;28;864;-71
2023/11/24 14:48:44;;;;;;;;;;;;;;;18.04;48.15;98741.19;10331611;28;813;-71
2023/11/24 14:53:41;;;;;;;;;;;;;;;18.05;48.00;98732.31;10331795;28;770;-72
2023/11/24 14:58:38;;;;;;;;;;;;;;;18.04;48.32;98720.94;10331780;28;1957;-71
2023/11/24 15:03:38;;;;;;;;;;;;;;;18.01;48.23;98723.75;10331323;28;954;-71
2023/11/24 15:08:46;;;;;;;;;;;;;;;18.00;48.22;98724.72;10331506;28;825;-71
2023/11/24 15:13:42;;;;;;;;;;;;;;;18.06;48.54;98745.44;10331746;28;857;-71
2023/11/24 15:18:43;;;;;;;;;;;;;;;18.08;49.22;98743.56;10330606;28;1890;-71
2023/11/24 15:23:39;;;;;;;;;;;;;;;18.04;50.15;98731.47;10331361;28;925;-71
2023/11/24 15:28:36;;;;;;;;;;;;;;;17.98;50.72;98716.03;10329974;28;921;-71
2023/11/24 15:33:33;;;;;;;;;;;;;;;17.93;51.25;98715.47;10330616;28;1242;-71
2023/11/24 15:38:29;;;;;;;;;;;;;;;17.91;52.15;98698.88;10330168;28;1973;-71
2023/11/24 15:43:25;;;;;;;;;;;;;;;17.85;52.22;98699.28;10330102;28;790;-71
2023/11/24 15:48:21;;;;;;;;;;;;;;;17.74;52.49;98690.19;10330533;28;858;-73
2023/11/24 15:53:21;;;;;;;;;;;;;;;17.66;52.46;98713.50;10329182;28;949;-71
2023/11/24 15:58:17;;;;;;;;;;;;;;;17.58;51.87;98739.47;10329421;28;1949;-71
2023/11/24 16:03:17;;;;;;;;;;;;;;;17.47;51.95;98729.53;10329270;28;949;-71
2023/11/24 16:08:13;;;;;;;;;;;;;;;17.36;51.76;98731.09;10328711;28;1174;-78
2023/11/24 16:13:09;;;;;;;;;;;;;;;17.27;51.55;98728.06;10329575;28;957;-71
2023/11/24 16:18:05;;;;;;;;;;;;;;;17.40;50.55;98737.91;10327226;28;1889;-72
2023/11/24 16:23:01;;;;;;;;;;;;;;;17.40;50.06;98725.56;10328870;28;969;-72
2023/11/24 16:27:57;;;;;;;;;;;;;;;17.38;50.00;98731.88;10328566;28;895;-72
2023/11/24 16:32:53;;;;;;;;;;;;;;;17.43;49.83;98735.09;10328236;28;2109;-71
2023/11/24 16:37:49;;;;;;;;;;;;;;;17.47;49.94;98715.50;10328868;28;1918;-71
2023/11/24 16:42:45;;;;;;;;;;;;;;;17.53;49.50;98712.53;10328595;28;826;-71
2023/11/24 16:47:42;;;;;;;;;;;;;;;17.55;49.61;98715.06;10327823;28;806;-72
2023/11/24 16:52:38;;;;;;;;;;;;;;;17.62;49.24;98706.72;10328290;28;848;-71
2023/11/24 16:57:35;;;;;;;;;;;;;;;17.64;49.23;98707.47;10328013;28;1965;-71
2023/11/24 17:02:31;;;;;;;;;;;;;;;17.65;48.81;98697.78;10327164;28;951;-71
2023/11/24 17:07:26;;;;;;;;;;;;;;;17.69;48.78;98683.50;10327479;28;880;-71
2023/11/24 17:12:24;;;;;;;;;;;;;;;17.75;48.55;98649.69;10326840;28;778;-72
2023/11/24 17:17:20;;;;;;;;;;;;;;;17.81;48.44;98680.13;10327665;28;1965;-72
2023/11/24 17:22:16;;;;;;;;;;;;;;;17.86;48.58;98688.63;10326583;28;954;-71
2023/11/24 17:27:13;;;;;;;;;;;;;;;17.85;48.69;98700.09;10326371;28;857;-71
2023/11/24 17:32:09;;;;;;;;;;;;;;;17.92;48.68;98712.00;10326738;28;949;-71
2023/11/24 17:37:05;;;;;;;;;;;;;;;17.91;48.79;98709.44;10327223;28;1953;-71
2023/11/24 17:42:01;;;;;;;;;;;;;;;17.92;48.57;98704.09;10325845;28;902;-72
2023/11/24 17:46:57;;;;;;;;;;;;;;;17.95;48.73;98697.78;10325823;28;989;-71
2023/11/24 17:51:53;;;;;;;;;;;;;;;17.96;48.90;98686.28;10325657;28;897;-71
2023/11/24 17:56:49;;;;;;;;;;;;;;;17.94;48.76;98680.25;10325387;28;1957;-70
2023/11/24 18:01:45;;;;;;;;;;;;;;;17.91;48.71;98668.09;10325374;28;963;-72
2023/11/24 18:06:41;;;;;;;;;;;;;;;17.97;48.57;98651.06;10325487;28;806;-72
2023/11/24 18:11:38;;;;;;;;;;;;;;;17.95;48.62;98652.97;10325209;28;894;-71
2023/11/24 18:16:35;;;;;;;;;;;;;;;17.98;48.59;98650.13;10328159;28;1934;-72
2023/11/24 18:21:31;;;;;;;;;;;;;;;18.00;48.66;98642.09;10334123;28;882;-71
2023/11/24 18:26:27;;;;;;;;;;;;;;;17.98;48.60;98642.22;10334075;28;810;-71
2023/11/24 18:31:23;;;;;;;;;;;;;;;18.01;48.49;98631.47;10333781;28;794;-71
2023/11/24 18:36:19;;;;;;;;;;;;;;;17.99;48.54;98637.78;10333792;28;1967;-71
2023/11/24 18:41:16;;;;;;;;;;;;;;;18.01;48.45;98634.13;10333430;28;966;-71
2023/11/24 18:46:12;;;;;;;;;;;;;;;17.99;48.77;98645.69;10333516;28;846;-72
2023/11/24 18:51:11;;;;;;;;;;;;;;;18.01;48.71;98639.38;10332348;28;872;-72
2023/11/24 18:56:07;;;;;;;;;;;;;;;18.00;48.46;98637.72;10332667;28;1897;-72
2023/11/24 19:01:03;;;;;;;;;;;;;;;18.02;48.40;98625.25;10332553;28;791;-72
2023/11/24 19:05:59;;;;;;;;;;;;;;;18.05;48.25;98629.47;10331760;28;974;-71
2023/11/24 19:10:56;;;;;;;;;;;;;;;18.03;48.57;98613.78;10332371;28;825;-71
2023/11/24 19:15:52;;;;;;;;;;;;;;;18.06;48.37;98637.31;10331937;28;1894;-71
2023/11/24 19:20:52;;;;;;;;;;;;;;;18.03;48.35;98666.50;10331179;28;918;-71
2023/11/24 19:25:48;;;;;;;;;;;;;;;18.05;48.26;98654.09;10331593;28;867;-71
2023/11/24 19:30:44;;;;;;;;;;;;;;;18.07;47.93;98688.25;10330975;28;810;-70
2023/11/24 19:35:40;;;;;;;;;;;;;;;18.04;48.29;98694.56;10330681;28;1902;-71
2023/11/24 19:40:36;;;;;;;;;;;;;;;18.02;48.05;98696.44;10331109;28;827;-71
2023/11/24 19:45:32;;;;;;;;;;;;;;;18.03;48.02;98700.78;10330474;28;900;-71
2023/11/24 19:50:28;;;;;;;;;;;;;;;18.04;48.07;98715.66;10330770;28;778;-71
2023/11/24 19:55:24;;;;;;;;;;;;;;;18.08;47.94;98713.72;10329312;28;1951;-71
2023/11/24 20:00:19;;;;;;;;;;;;;;;18.07;48.08;98701.44;10330413;28;818;-71
2023/11/24 20:05:15;;;;;;;;;;;;;;;18.06;47.95;98695.31;10330195;28;854;-71
2023/11/24 20:10:12;;;;;;;;;;;;;;;18.08;48.05;98717.19;10330021;28;774;-71
2023/11/24 20:15:07;;;;;;;;;;;;;;;18.06;48.20;98723.50;10329072;28;1875;-72
2023/11/24 20:20:04;;;;;;;;;;;;;;;18.08;48.06;98763.81;10329671;28;789;-72
2023/11/24 20:25:03;;;;;;;;;;;;;;;18.05;48.25;98759.56;10328887;28;906;-71
2023/11/24 20:29:58;;;;;;;;;;;;;;;18.05;48.18;98817.56;10328802;28;846;-71
2023/11/24 20:34:54;;;;;;;;;;;;;;;18.06;48.08;98844.78;10329136;28;1379;-71
2023/11/24 20:39:51;;;;;;;;;;;;;;;18.01;48.31;98823.97;10327691;28;1973;-72
2023/11/24 20:44:47;;;;;;;;;;;;;;;17.98;48.30;98794.28;10328521;28;951;-71
2023/11/24 20:49:44;;;;;;;;;;;;;;;17.93;48.22;98797.19;10327611;28;887;-71
2023/11/24 20:54:40;;;;;;;;;;;;;;;17.93;48.21;98792.78;10328030;28;1024;-71
2023/11/24 20:59:36;;;;;;;;;;;;;;;17.94;48.15;98812.06;10327841;28;1930;-72
2023/11/24 21:04:32;;;;;;;;;;;;;;;17.86;48.10;98824.84;10327496;28;932;-72
2023/11/24 21:09:27;;;;;;;;;;;;;;;17.87;48.32;98835.31;10327973;28;814;-72
2023/11/24 21:14:23;;;;;;;;;;;;;;;17.86;48.10;98845.94;10326099;28;933;-72
2023/11/24 21:19:19;;;;;;;;;;;;;;;17.83;48.00;98861.94;10327296;28;1906;-71
2023/11/24 21:24:15;;;;;;;;;;;;;;;17.82;48.27;98854.97;10326574;28;928;-71
2023/11/24 21:29:11;;;;;;;;;;;;;;;17.85;48.12;98852.16;10326935;28;814;-71
2023/11/24 21:34:07;;;;;;;;;;;;;;;17.83;48.35;98867.22;10325659;28;1061;-71
2023/11/24 21:39:04;;;;;;;;;;;;;;;17.80;48.29;98872.66;10325903;28;1969;-72
2023/11/24 21:44:00;;;;;;;;;;;;;;;17.75;48.44;98875.53;10325748;28;965;-71
2023/11/24 21:48:55;;;;;;;;;;;;;;;17.71;48.54;98887.16;10325911;28;863;-71
2023/11/24 21:53:51;;;;;;;;;;;;;;;17.72;48.54;98899.41;10324854;28;868;-72
2023/11/24 21:58:47;;;;;;;;;;;;;;;17.69;48.57;98902.22;10325468;28;1965;-71
2023/11/24 22:03:43;;;;;;;;;;;;;;;17.67;48.66;98902.31;10325021;28;925;-72
2023/11/24 22:08:39;;;;;;;;;;;;;;;17.64;48.73;98906.91;10325404;28;952;-71
2023/11/24 22:13:35;;;;;;;;;;;;;;;17.60;48.78;98916.75;10325151;28;867;-72
2023/11/24 22:18:31;;;;;;;;;;;;;;;17.55;48.81;98915.31;10325304;28;1885;-71
2023/11/24 22:23:27;;;;;;;;;;;;;;;17.51;48.73;98926.03;10325116;28;905;-71
2023/11/24 22:28:23;;;;;;;;;;;;;;;17.49;48.95;98927.06;10325013;28;822;-71
2023/11/24 22:33:18;;;;;;;;;;;;;;;17.48;48.72;98939.38;10325614;28;1493;-71
2023/11/24 22:38:14;;;;;;;;;;;;;;;17.47;48.73;98955.25;10324166;28;1922;-71
2023/11/24 22:43:10;;;;;;;;;;;;;;;17.43;48.96;98959.00;10324011;28;929;-72
2023/11/24 22:48:06;;;;;;;;;;;;;;;17.42;48.82;98966.06;10324597;28;925;-72
2023/11/24 22:53:02;;;;;;;;;;;;;;;17.41;49.00;98974.03;10324517;28;771;-72
2023/11/24 22:57:58;;;;;;;;;;;;;;;17.40;48.88;98972.34;10325054;28;1902;-72
2023/11/24 23:02:54;;;;;;;;;;;;;;;17.38;48.93;98987.38;10328926;28;1001;-71
2023/11/24 23:07:50;;;;;;;;;;;;;;;17.37;48.83;98998.84;10331766;28;893;-71
2023/11/24 23:12:45;;;;;;;;;;;;;;;17.39;48.97;99015.41;10331985;28;858;-71
2023/11/24 23:17:43;;;;;;;;;;;;;;;17.37;48.86;99004.09;10331372;28;1902;-72
2023/11/24 23:22:39;;;;;;;;;;;;;;;17.37;49.05;99012.88;10331182;28;955;-71
2023/11/24 23:27:35;;;;;;;;;;;;;;;17.39;48.90;99028.59;10331471;28;821;-71
2023/11/24 23:32:31;;;;;;;;;;;;;;;17.37;48.86;99033.06;10330920;28;961;-71
2023/11/24 23:37:27;;;;;;;;;;;;;;;17.37;49.04;99041.84;10331225;28;1914;-71
2023/11/24 23:42:24;;;;;;;;;;;;;;;17.39;48.93;99054.94;10330890;28;917;-72
2023/11/24 23:47:21;;;;;;;;;;;;;;;17.39;48.89;99065.47;10330329;28;799;-71
2023/11/24 23:52:17;;;;;;;;;;;;;;;17.37;48.75;99067.31;10329765;28;1137;-71
2023/11/24 23:57:13;;;;;;;;;;;;;;;17.35;48.79;99064.78;10329325;28;1902;-71
